sensor_id;sensor_type;location;lat;lon;timestamp;noise_LAeq;noise_LA_min;noise_LA_max;noise_LA01;noise_LA95
72686;Laerm;61365;52.162;4.500;2022-08-21T00:02:27;41.23;35.80;51.31;;
72686;Laerm;61365;52.162;4.500;2022-08-21T00:04:54;41.33;35.72;50.79;;
72686;Laerm;61365;52.162;4.500;2022-08-21T00:07:20;41.16;35.21;47.95;;
72686;Laerm;61365;52.162;4.500;2022-08-21T00:09:47;41.17;35.18;46.60;;
72686;Laerm;61365;52.162;4.500;2022-08-21T00:12:14;41.27;35.71;52.08;;
72686;Laerm;61365;52.162;4.500;2022-08-21T00:14:40;41.21;34.86;46.81;;
72686;Laerm;61365;52.162;4.500;2022-08-21T00:17:07;41.35;34.05;55.45;;
72686;Laerm;61365;52.162;4.500;2022-08-21T00:19:33;41.21;34.87;46.18;;
72686;Laerm;61365;52.162;4.500;2022-08-21T00:22:00;41.14;35.96;47.64;;
72686;Laerm;61365;52.162;4.500;2022-08-21T00:24:27;41.20;34.60;46.59;;
72686;Laerm;61365;52.162;4.500;2022-08-21T00:26:53;41.38;35.73;45.98;;
72686;Laerm;61365;52.162;4.500;2022-08-21T00:29:20;41.52;36.79;46.77;;
72686;Laerm;61365;52.162;4.500;2022-08-21T00:31:46;41.51;35.94;46.38;;
72686;Laerm;61365;52.162;4.500;2022-08-21T00:34:14;41.31;36.17;48.02;;
72686;Laerm;61365;52.162;4.500;2022-08-21T00:36:40;41.37;36.77;52.08;;
72686;Laerm;61365;52.162;4.500;2022-08-21T00:39:08;41.29;36.04;46.00;;
72686;Laerm;61365;52.162;4.500;2022-08-21T00:41:38;41.31;35.68;46.99;;
72686;Laerm;61365;52.162;4.500;2022-08-21T00:44:09;41.20;35.58;46.23;;
72686;Laerm;61365;52.162;4.500;2022-08-21T00:46:38;41.20;35.73;47.84;;
72686;Laerm;61365;52.162;4.500;2022-08-21T00:49:07;41.21;36.19;46.79;;
72686;Laerm;61365;52.162;4.500;2022-08-21T00:51:54;41.20;35.74;52.97;;
72686;Laerm;61365;52.162;4.500;2022-08-21T00:54:25;41.19;36.24;45.92;;
72686;Laerm;61365;52.162;4.500;2022-08-21T00:56:59;41.20;35.70;46.00;;
72686;Laerm;61365;52.162;4.500;2022-08-21T00:59:33;41.20;36.09;46.38;;
72686;Laerm;61365;52.162;4.500;2022-08-21T01:02:02;41.20;36.67;45.90;;
72686;Laerm;61365;52.162;4.500;2022-08-21T01:04:29;41.25;36.35;47.15;;
72686;Laerm;61365;52.162;4.500;2022-08-21T01:06:56;41.43;36.57;51.53;;
72686;Laerm;61365;52.162;4.500;2022-08-21T01:09:23;41.45;36.42;46.31;;
72686;Laerm;61365;52.162;4.500;2022-08-21T01:11:49;41.86;36.24;53.78;;
72686;Laerm;61365;52.162;4.500;2022-08-21T01:14:17;41.42;36.18;50.67;;
72686;Laerm;61365;52.162;4.500;2022-08-21T01:16:50;41.41;36.30;47.04;;
72686;Laerm;61365;52.162;4.500;2022-08-21T01:19:19;41.47;36.72;46.69;;
72686;Laerm;61365;52.162;4.500;2022-08-21T01:21:46;41.46;36.59;47.98;;
72686;Laerm;61365;52.162;4.500;2022-08-21T01:24:13;41.51;36.37;46.23;;
72686;Laerm;61365;52.162;4.500;2022-08-21T01:26:42;41.45;35.43;47.07;;
72686;Laerm;61365;52.162;4.500;2022-08-21T01:31:53;41.53;36.61;47.35;;
72686;Laerm;61365;52.162;4.500;2022-08-21T01:34:19;41.52;35.56;48.04;;
72686;Laerm;61365;52.162;4.500;2022-08-21T01:36:47;41.44;35.64;47.21;;
72686;Laerm;61365;52.162;4.500;2022-08-21T01:39:14;41.49;36.02;47.04;;
72686;Laerm;61365;52.162;4.500;2022-08-21T01:41:41;41.50;36.47;50.75;;
72686;Laerm;61365;52.162;4.500;2022-08-21T01:44:07;41.61;36.44;46.53;;
72686;Laerm;61365;52.162;4.500;2022-08-21T01:46:34;41.58;36.63;46.64;;
72686;Laerm;61365;52.162;4.500;2022-08-21T01:49:01;41.51;36.37;47.98;;
72686;Laerm;61365;52.162;4.500;2022-08-21T01:51:27;41.63;36.52;46.59;;
72686;Laerm;61365;52.162;4.500;2022-08-21T01:53:53;41.65;36.81;47.99;;
72686;Laerm;61365;52.162;4.500;2022-08-21T01:56:20;41.75;36.45;49.24;;
72686;Laerm;61365;52.162;4.500;2022-08-21T01:58:47;41.73;36.99;46.26;;
72686;Laerm;61365;52.162;4.500;2022-08-21T02:01:14;41.86;36.73;49.85;;
72686;Laerm;61365;52.162;4.500;2022-08-21T02:03:41;41.81;36.81;50.82;;
72686;Laerm;61365;52.162;4.500;2022-08-21T02:06:13;41.90;36.06;50.20;;
72686;Laerm;61365;52.162;4.500;2022-08-21T02:08:40;41.76;37.12;47.53;;
72686;Laerm;61365;52.162;4.500;2022-08-21T02:11:07;41.75;37.33;46.76;;
72686;Laerm;61365;52.162;4.500;2022-08-21T02:13:33;41.75;37.19;47.32;;
72686;Laerm;61365;52.162;4.500;2022-08-21T02:16:00;41.85;35.97;47.81;;
72686;Laerm;61365;52.162;4.500;2022-08-21T02:18:26;41.74;36.32;48.11;;
72686;Laerm;61365;52.162;4.500;2022-08-21T02:20:53;41.66;36.01;46.04;;
72686;Laerm;61365;52.162;4.500;2022-08-21T02:23:19;41.73;34.93;46.18;;
72686;Laerm;61365;52.162;4.500;2022-08-21T02:25:45;41.80;37.27;47.11;;
72686;Laerm;61365;52.162;4.500;2022-08-21T02:28:13;41.79;36.47;49.97;;
72686;Laerm;61365;52.162;4.500;2022-08-21T02:30:45;41.80;36.02;45.88;;
72686;Laerm;61365;52.162;4.500;2022-08-21T02:33:14;41.70;35.97;51.97;;
72686;Laerm;61365;52.162;4.500;2022-08-21T02:35:43;41.58;36.56;46.25;;
72686;Laerm;61365;52.162;4.500;2022-08-21T02:38:18;41.66;35.73;51.55;;
72686;Laerm;61365;52.162;4.500;2022-08-21T02:40:48;41.61;36.44;51.08;;
72686;Laerm;61365;52.162;4.500;2022-08-21T02:43:16;41.66;36.41;47.94;;
72686;Laerm;61365;52.162;4.500;2022-08-21T02:45:43;41.65;35.73;46.29;;
72686;Laerm;61365;52.162;4.500;2022-08-21T02:48:15;41.62;36.94;46.56;;
72686;Laerm;61365;52.162;4.500;2022-08-21T02:50:47;41.65;36.34;50.06;;
72686;Laerm;61365;52.162;4.500;2022-08-21T02:53:15;41.61;36.17;47.28;;
72686;Laerm;61365;52.162;4.500;2022-08-21T02:55:45;41.62;35.74;47.70;;
72686;Laerm;61365;52.162;4.500;2022-08-21T02:58:16;41.60;35.79;47.26;;
72686;Laerm;61365;52.162;4.500;2022-08-21T03:00:44;41.58;36.78;46.31;;
72686;Laerm;61365;52.162;4.500;2022-08-21T03:03:11;41.68;36.12;48.15;;
72686;Laerm;61365;52.162;4.500;2022-08-21T03:05:38;41.63;35.84;47.89;;
72686;Laerm;61365;52.162;4.500;2022-08-21T03:08:07;41.60;36.21;46.68;;
72686;Laerm;61365;52.162;4.500;2022-08-21T03:10:39;41.62;37.01;47.34;;
72686;Laerm;61365;52.162;4.500;2022-08-21T03:13:07;41.65;36.28;49.18;;
72686;Laerm;61365;52.162;4.500;2022-08-21T03:15:34;41.59;36.09;47.38;;
72686;Laerm;61365;52.162;4.500;2022-08-21T03:18:02;41.58;35.92;48.00;;
72686;Laerm;61365;52.162;4.500;2022-08-21T03:20:30;41.61;36.18;48.08;;
72686;Laerm;61365;52.162;4.500;2022-08-21T03:22:58;41.56;36.57;48.62;;
72686;Laerm;61365;52.162;4.500;2022-08-21T03:25:27;41.59;36.42;48.47;;
72686;Laerm;61365;52.162;4.500;2022-08-21T03:27:53;41.60;36.40;52.28;;
72686;Laerm;61365;52.162;4.500;2022-08-21T03:30:21;41.61;36.53;48.90;;
72686;Laerm;61365;52.162;4.500;2022-08-21T03:32:48;41.61;36.25;45.76;;
72686;Laerm;61365;52.162;4.500;2022-08-21T03:35:15;41.65;36.46;47.98;;
72686;Laerm;61365;52.162;4.500;2022-08-21T03:37:42;41.66;36.62;47.47;;
72686;Laerm;61365;52.162;4.500;2022-08-21T03:40:11;41.86;36.59;63.12;;
72686;Laerm;61365;52.162;4.500;2022-08-21T03:42:37;41.73;36.15;55.71;;
72686;Laerm;61365;52.162;4.500;2022-08-21T03:45:06;41.65;36.30;53.69;;
72686;Laerm;61365;52.162;4.500;2022-08-21T03:47:33;41.65;35.10;47.60;;
72686;Laerm;61365;52.162;4.500;2022-08-21T03:49:59;41.69;36.72;47.87;;
72686;Laerm;61365;52.162;4.500;2022-08-21T03:52:26;41.77;36.68;46.01;;
72686;Laerm;61365;52.162;4.500;2022-08-21T03:54:52;41.73;36.65;46.31;;
72686;Laerm;61365;52.162;4.500;2022-08-21T03:57:19;41.81;37.21;46.45;;
72686;Laerm;61365;52.162;4.500;2022-08-21T03:59:45;41.81;35.62;50.26;;
72686;Laerm;61365;52.162;4.500;2022-08-21T04:02:16;41.85;36.60;52.09;;
72686;Laerm;61365;52.162;4.500;2022-08-21T04:04:45;41.79;36.46;46.67;;
72686;Laerm;61365;52.162;4.500;2022-08-21T04:07:11;41.98;36.21;47.89;;
72686;Laerm;61365;52.162;4.500;2022-08-21T04:09:37;41.85;36.78;46.07;;
72686;Laerm;61365;52.162;4.500;2022-08-21T04:12:04;41.83;36.64;45.69;;
72686;Laerm;61365;52.162;4.500;2022-08-21T04:14:31;41.86;36.87;52.21;;
72686;Laerm;61365;52.162;4.500;2022-08-21T04:16:58;41.77;36.71;47.21;;
72686;Laerm;61365;52.162;4.500;2022-08-21T04:19:24;41.83;36.88;45.90;;
72686;Laerm;61365;52.162;4.500;2022-08-21T04:21:50;41.83;37.20;46.28;;
72686;Laerm;61365;52.162;4.500;2022-08-21T04:24:16;41.86;36.43;47.61;;
72686;Laerm;61365;52.162;4.500;2022-08-21T04:26:43;41.88;37.37;46.19;;
72686;Laerm;61365;52.162;4.500;2022-08-21T04:29:09;41.87;36.84;48.59;;
72686;Laerm;61365;52.162;4.500;2022-08-21T04:31:36;41.91;37.42;46.64;;
72686;Laerm;61365;52.162;4.500;2022-08-21T04:34:04;41.86;37.14;47.86;;
72686;Laerm;61365;52.162;4.500;2022-08-21T04:36:32;41.88;37.20;46.80;;
72686;Laerm;61365;52.162;4.500;2022-08-21T04:38:59;41.91;37.25;48.54;;
72686;Laerm;61365;52.162;4.500;2022-08-21T04:41:25;41.89;36.99;47.84;;
72686;Laerm;61365;52.162;4.500;2022-08-21T04:43:52;41.92;37.32;45.98;;
72686;Laerm;61365;52.162;4.500;2022-08-21T04:46:18;41.93;36.86;47.46;;
72686;Laerm;61365;52.162;4.500;2022-08-21T04:48:44;41.90;36.95;45.93;;
72686;Laerm;61365;52.162;4.500;2022-08-21T04:51:14;41.86;36.39;46.34;;
72686;Laerm;61365;52.162;4.500;2022-08-21T04:53:57;41.90;37.24;46.25;;
72686;Laerm;61365;52.162;4.500;2022-08-21T04:56:30;41.86;36.68;48.45;;
72686;Laerm;61365;52.162;4.500;2022-08-21T04:59:05;41.90;36.63;46.67;;
72686;Laerm;61365;52.162;4.500;2022-08-21T05:01:37;41.91;36.54;48.02;;
72686;Laerm;61365;52.162;4.500;2022-08-21T05:04:08;41.86;35.81;47.06;;
72686;Laerm;61365;52.162;4.500;2022-08-21T05:06:41;41.95;35.68;49.80;;
72686;Laerm;61365;52.162;4.500;2022-08-21T05:09:16;41.85;36.75;48.54;;
72686;Laerm;61365;52.162;4.500;2022-08-21T05:11:44;41.76;37.18;46.15;;
72686;Laerm;61365;52.162;4.500;2022-08-21T05:14:12;41.85;36.47;48.02;;
72686;Laerm;61365;52.162;4.500;2022-08-21T05:16:38;41.77;37.46;45.96;;
72686;Laerm;61365;52.162;4.500;2022-08-21T05:19:06;41.72;37.54;45.85;;
72686;Laerm;61365;52.162;4.500;2022-08-21T05:21:35;41.65;36.45;47.97;;
72686;Laerm;61365;52.162;4.500;2022-08-21T05:24:02;41.73;37.56;50.22;;
72686;Laerm;61365;52.162;4.500;2022-08-21T05:26:29;41.77;36.81;47.89;;
72686;Laerm;61365;52.162;4.500;2022-08-21T05:28:56;41.82;36.24;51.60;;
72686;Laerm;61365;52.162;4.500;2022-08-21T05:31:23;41.77;36.76;47.46;;
72686;Laerm;61365;52.162;4.500;2022-08-21T05:33:49;41.71;36.74;51.79;;
72686;Laerm;61365;52.162;4.500;2022-08-21T05:36:18;41.69;36.42;48.03;;
72686;Laerm;61365;52.162;4.500;2022-08-21T05:38:45;41.82;36.17;52.75;;
72686;Laerm;61365;52.162;4.500;2022-08-21T05:41:11;41.66;36.63;48.21;;
72686;Laerm;61365;52.162;4.500;2022-08-21T05:43:38;41.68;36.25;48.26;;
72686;Laerm;61365;52.162;4.500;2022-08-21T05:46:07;41.55;36.51;48.29;;
72686;Laerm;61365;52.162;4.500;2022-08-21T05:48:35;41.58;36.78;46.08;;
72686;Laerm;61365;52.162;4.500;2022-08-21T05:51:14;41.58;36.92;52.45;;
72686;Laerm;61365;52.162;4.500;2022-08-21T05:53:43;41.49;36.15;46.66;;
72686;Laerm;61365;52.162;4.500;2022-08-21T05:56:12;41.52;36.13;46.59;;
72686;Laerm;61365;52.162;4.500;2022-08-21T05:58:39;41.44;36.69;45.97;;
72686;Laerm;61365;52.162;4.500;2022-08-21T06:01:06;41.29;36.02;47.71;;
72686;Laerm;61365;52.162;4.500;2022-08-21T06:03:36;41.45;36.62;47.02;;
72686;Laerm;61365;52.162;4.500;2022-08-21T06:06:03;41.42;36.81;49.96;;
72686;Laerm;61365;52.162;4.500;2022-08-21T06:08:29;41.26;36.03;45.70;;
72686;Laerm;61365;52.162;4.500;2022-08-21T06:10:58;41.32;36.07;46.28;;
72686;Laerm;61365;52.162;4.500;2022-08-21T06:13:26;41.51;36.51;46.10;;
72686;Laerm;61365;52.162;4.500;2022-08-21T06:16:09;41.56;36.37;48.50;;
72686;Laerm;61365;52.162;4.500;2022-08-21T06:18:37;41.62;36.57;47.43;;
72686;Laerm;61365;52.162;4.500;2022-08-21T06:21:04;41.55;36.22;47.80;;
72686;Laerm;61365;52.162;4.500;2022-08-21T06:23:30;41.60;36.43;46.50;;
72686;Laerm;61365;52.162;4.500;2022-08-21T06:25:57;41.48;36.66;49.97;;
72686;Laerm;61365;52.162;4.500;2022-08-21T06:28:24;41.39;35.78;47.09;;
72686;Laerm;61365;52.162;4.500;2022-08-21T06:30:50;41.42;35.78;49.09;;
72686;Laerm;61365;52.162;4.500;2022-08-21T06:33:17;41.51;36.17;46.99;;
72686;Laerm;61365;52.162;4.500;2022-08-21T06:35:43;41.44;35.67;47.22;;
72686;Laerm;61365;52.162;4.500;2022-08-21T06:38:09;41.42;35.80;53.70;;
72686;Laerm;61365;52.162;4.500;2022-08-21T06:40:37;41.44;36.72;48.15;;
72686;Laerm;61365;52.162;4.500;2022-08-21T06:43:13;41.50;35.66;46.91;;
72686;Laerm;61365;52.162;4.500;2022-08-21T06:45:40;41.40;35.30;50.11;;
72686;Laerm;61365;52.162;4.500;2022-08-21T06:48:06;41.37;36.18;46.44;;
72686;Laerm;61365;52.162;4.500;2022-08-21T06:50:36;41.47;36.22;50.30;;
72686;Laerm;61365;52.162;4.500;2022-08-21T06:53:10;41.44;36.24;47.99;;
72686;Laerm;61365;52.162;4.500;2022-08-21T06:55:39;41.32;35.21;47.44;;
72686;Laerm;61365;52.162;4.500;2022-08-21T06:58:06;41.35;35.75;45.83;;
72686;Laerm;61365;52.162;4.500;2022-08-21T07:00:32;41.32;35.79;49.83;;
72686;Laerm;61365;52.162;4.500;2022-08-21T07:03:02;41.29;35.48;45.54;;
72686;Laerm;61365;52.162;4.500;2022-08-21T07:05:29;41.35;36.35;49.84;;
72686;Laerm;61365;52.162;4.500;2022-08-21T07:07:57;41.50;33.32;55.57;;
72686;Laerm;61365;52.162;4.500;2022-08-21T07:10:26;42.12;36.92;46.84;;
72686;Laerm;61365;52.162;4.500;2022-08-21T07:12:54;42.11;36.52;48.87;;
72686;Laerm;61365;52.162;4.500;2022-08-21T07:15:21;42.16;36.56;51.72;;
72686;Laerm;61365;52.162;4.500;2022-08-21T07:17:47;42.26;36.72;52.54;;
72686;Laerm;61365;52.162;4.500;2022-08-21T07:20:13;41.76;36.47;54.14;;
72686;Laerm;61365;52.162;4.500;2022-08-21T07:22:40;41.32;35.93;49.81;;
72686;Laerm;61365;52.162;4.500;2022-08-21T07:25:07;41.22;36.90;49.10;;
72686;Laerm;61365;52.162;4.500;2022-08-21T07:27:34;41.18;36.21;51.50;;
72686;Laerm;61365;52.162;4.500;2022-08-21T07:30:08;41.17;35.69;44.92;;
72686;Laerm;61365;52.162;4.500;2022-08-21T07:32:37;41.30;36.20;45.83;;
72686;Laerm;61365;52.162;4.500;2022-08-21T07:35:04;41.39;35.75;47.87;;
72686;Laerm;61365;52.162;4.500;2022-08-21T07:37:30;41.36;35.51;46.44;;
72686;Laerm;61365;52.162;4.500;2022-08-21T07:39:56;41.39;36.16;46.22;;
72686;Laerm;61365;52.162;4.500;2022-08-21T07:42:23;41.49;35.89;46.18;;
72686;Laerm;61365;52.162;4.500;2022-08-21T07:44:49;41.37;34.19;46.66;;
72686;Laerm;61365;52.162;4.500;2022-08-21T07:47:16;41.46;35.81;48.56;;
72686;Laerm;61365;52.162;4.500;2022-08-21T07:49:42;41.49;35.11;49.35;;
72686;Laerm;61365;52.162;4.500;2022-08-21T07:52:08;41.40;34.56;45.89;;
72686;Laerm;61365;52.162;4.500;2022-08-21T07:54:35;41.49;36.16;50.15;;
72686;Laerm;61365;52.162;4.500;2022-08-21T07:57:02;41.54;36.45;47.96;;
72686;Laerm;61365;52.162;4.500;2022-08-21T07:59:31;41.53;36.35;47.41;;
72686;Laerm;61365;52.162;4.500;2022-08-21T08:01:57;41.55;36.99;51.55;;
72686;Laerm;61365;52.162;4.500;2022-08-21T08:04:24;41.67;36.34;46.86;;
72686;Laerm;61365;52.162;4.500;2022-08-21T08:06:51;41.56;37.10;45.91;;
72686;Laerm;61365;52.162;4.500;2022-08-21T08:09:18;41.71;36.90;46.43;;
72686;Laerm;61365;52.162;4.500;2022-08-21T08:11:44;41.61;36.32;55.68;;
72686;Laerm;61365;52.162;4.500;2022-08-21T08:14:10;41.90;37.07;52.11;;
72686;Laerm;61365;52.162;4.500;2022-08-21T08:16:37;41.74;36.48;47.16;;
72686;Laerm;61365;52.162;4.500;2022-08-21T08:19:04;41.72;37.40;50.11;;
72686;Laerm;61365;52.162;4.500;2022-08-21T08:21:30;41.79;36.36;48.41;;
72686;Laerm;61365;52.162;4.500;2022-08-21T08:23:58;41.79;37.05;48.19;;
72686;Laerm;61365;52.162;4.500;2022-08-21T08:26:24;41.75;37.53;47.67;;
72686;Laerm;61365;52.162;4.500;2022-08-21T08:28:51;41.76;36.98;47.54;;
72686;Laerm;61365;52.162;4.500;2022-08-21T08:31:17;41.72;37.07;47.81;;
72686;Laerm;61365;52.162;4.500;2022-08-21T08:33:43;41.73;37.37;52.43;;
72686;Laerm;61365;52.162;4.500;2022-08-21T08:36:16;41.87;37.54;46.41;;
72686;Laerm;61365;52.162;4.500;2022-08-21T08:38:43;41.94;37.29;48.31;;
72686;Laerm;61365;52.162;4.500;2022-08-21T08:41:13;41.93;37.20;48.06;;
72686;Laerm;61365;52.162;4.500;2022-08-21T08:43:59;41.90;37.50;49.20;;
72686;Laerm;61365;52.162;4.500;2022-08-21T08:46:50;41.84;37.17;47.87;;
72686;Laerm;61365;52.162;4.500;2022-08-21T08:50:05;41.85;37.72;46.72;;
72686;Laerm;61365;52.162;4.500;2022-08-21T08:52:30;41.86;36.92;48.49;;
72686;Laerm;61365;52.162;4.500;2022-08-21T08:55:07;41.80;36.95;49.30;;
72686;Laerm;61365;52.162;4.500;2022-08-21T08:57:42;41.73;35.92;50.31;;
72686;Laerm;61365;52.162;4.500;2022-08-21T09:00:14;41.75;36.85;49.43;;
72686;Laerm;61365;52.162;4.500;2022-08-21T09:02:43;41.68;36.70;47.71;;
72686;Laerm;61365;52.162;4.500;2022-08-21T09:05:27;41.68;36.75;50.63;;
72686;Laerm;61365;52.162;4.500;2022-08-21T09:08:22;41.70;36.43;46.96;;
72686;Laerm;61365;52.162;4.500;2022-08-21T09:11:12;41.55;36.60;55.89;;
72686;Laerm;61365;52.162;4.500;2022-08-21T09:22:24;41.44;36.45;47.87;;
72686;Laerm;61365;52.162;4.500;2022-08-21T09:25:28;41.32;35.92;47.81;;
72686;Laerm;61365;52.162;4.500;2022-08-21T09:27:56;41.36;35.69;49.02;;
72686;Laerm;61365;52.162;4.500;2022-08-21T09:30:32;41.36;35.73;46.50;;
72686;Laerm;61365;52.162;4.500;2022-08-21T09:32:58;41.44;36.29;46.41;;
72686;Laerm;61365;52.162;4.500;2022-08-21T09:35:26;41.42;36.11;50.13;;
72686;Laerm;61365;52.162;4.500;2022-08-21T09:37:59;41.39;35.34;47.37;;
72686;Laerm;61365;52.162;4.500;2022-08-21T09:40:46;41.27;35.69;47.90;;
72686;Laerm;61365;52.162;4.500;2022-08-21T09:45:42;41.89;36.31;55.05;;
72686;Laerm;61365;52.162;4.500;2022-08-21T09:48:21;41.14;35.88;46.77;;
72686;Laerm;61365;52.162;4.500;2022-08-21T09:50:50;41.17;36.03;46.14;;
72686;Laerm;61365;52.162;4.500;2022-08-21T09:53:27;41.14;35.39;48.83;;
72686;Laerm;61365;52.162;4.500;2022-08-21T09:56:04;42.38;35.83;51.32;;
72686;Laerm;61365;52.162;4.500;2022-08-21T09:58:51;43.10;37.24;54.81;;
72686;Laerm;61365;52.162;4.500;2022-08-21T10:01:24;42.37;37.22;54.78;;
72686;Laerm;61365;52.162;4.500;2022-08-21T10:04:10;41.21;35.41;51.22;;
72686;Laerm;61365;52.162;4.500;2022-08-21T10:06:37;41.32;34.99;51.52;;
72686;Laerm;61365;52.162;4.500;2022-08-21T10:09:12;41.98;36.37;52.11;;
72686;Laerm;61365;52.162;4.500;2022-08-21T10:12:06;42.45;36.78;50.40;;
72686;Laerm;61365;52.162;4.500;2022-08-21T10:14:47;42.49;37.10;52.79;;
72686;Laerm;61365;52.162;4.500;2022-08-21T10:18:04;42.70;37.06;49.47;;
72686;Laerm;61365;52.162;4.500;2022-08-21T10:20:46;42.40;37.08;48.49;;
72686;Laerm;61365;52.162;4.500;2022-08-21T10:29:45;42.20;37.25;50.53;;
72686;Laerm;61365;52.162;4.500;2022-08-21T10:32:39;42.10;36.80;48.81;;
72686;Laerm;61365;52.162;4.500;2022-08-21T10:35:18;42.36;36.75;49.08;;
72686;Laerm;61365;52.162;4.500;2022-08-21T10:44:46;42.31;37.03;49.63;;
72686;Laerm;61365;52.162;4.500;2022-08-21T10:47:34;42.33;37.07;50.85;;
72686;Laerm;61365;52.162;4.500;2022-08-21T10:56:17;42.08;36.90;48.75;;
72686;Laerm;61365;52.162;4.500;2022-08-21T10:59:20;42.06;36.62;49.31;;
72686;Laerm;61365;52.162;4.500;2022-08-21T11:01:47;43.08;36.67;53.88;;
72686;Laerm;61365;52.162;4.500;2022-08-21T11:04:34;42.14;37.00;53.50;;
72686;Laerm;61365;52.162;4.500;2022-08-21T11:10:29;42.02;37.15;49.42;;
72686;Laerm;61365;52.162;4.500;2022-08-21T11:13:12;42.00;36.81;50.88;;
72686;Laerm;61365;52.162;4.500;2022-08-21T11:22:00;42.10;36.32;47.93;;
72686;Laerm;61365;52.162;4.500;2022-08-21T11:24:38;42.02;36.93;50.44;;
72686;Laerm;61365;52.162;4.500;2022-08-21T11:30:17;42.22;37.15;55.95;;
72686;Laerm;61365;52.162;4.500;2022-08-21T11:35:52;41.95;36.23;47.81;;
72686;Laerm;61365;52.162;4.500;2022-08-21T11:38:41;41.98;36.81;47.09;;
72686;Laerm;61365;52.162;4.500;2022-08-21T11:41:20;43.26;37.18;53.53;;
72686;Laerm;61365;52.162;4.500;2022-08-21T11:47:06;43.12;36.35;54.61;;
72686;Laerm;61365;52.162;4.500;2022-08-21T11:50:37;42.25;37.10;49.37;;
72686;Laerm;61365;52.162;4.500;2022-08-21T11:53:21;42.16;36.91;48.81;;
72686;Laerm;61365;52.162;4.500;2022-08-21T11:56:06;42.16;36.87;50.08;;
72686;Laerm;61365;52.162;4.500;2022-08-21T11:58:44;42.21;36.72;47.21;;
72686;Laerm;61365;52.162;4.500;2022-08-21T12:01:18;42.16;36.88;47.33;;
72686;Laerm;61365;52.162;4.500;2022-08-21T12:04:16;42.26;36.37;51.94;;
72686;Laerm;61365;52.162;4.500;2022-08-21T12:06:43;42.33;36.98;49.67;;
72686;Laerm;61365;52.162;4.500;2022-08-21T12:09:34;42.30;36.71;47.43;;
72686;Laerm;61365;52.162;4.500;2022-08-21T12:12:21;42.31;37.16;47.66;;
72686;Laerm;61365;52.162;4.500;2022-08-21T12:15:02;42.41;37.18;51.68;;
72686;Laerm;61365;52.162;4.500;2022-08-21T12:17:39;42.37;36.32;51.69;;
72686;Laerm;61365;52.162;4.500;2022-08-21T12:23:02;42.25;37.03;49.72;;
72686;Laerm;61365;52.162;4.500;2022-08-21T12:28:14;42.31;36.84;48.23;;
72686;Laerm;61365;52.162;4.500;2022-08-21T12:30:45;42.37;36.82;47.50;;
72686;Laerm;61365;52.162;4.500;2022-08-21T12:33:35;42.42;37.12;49.03;;
72686;Laerm;61365;52.162;4.500;2022-08-21T12:36:11;42.33;37.14;48.66;;
72686;Laerm;61365;52.162;4.500;2022-08-21T12:38:52;42.34;36.92;48.72;;
72686;Laerm;61365;52.162;4.500;2022-08-21T12:41:45;42.41;37.08;51.22;;
72686;Laerm;61365;52.162;4.500;2022-08-21T12:44:20;42.44;37.07;48.54;;
72686;Laerm;61365;52.162;4.500;2022-08-21T12:46:58;42.40;36.97;48.10;;
72686;Laerm;61365;52.162;4.500;2022-08-21T12:49:36;42.42;36.57;51.15;;
72686;Laerm;61365;52.162;4.500;2022-08-21T12:52:34;42.48;36.80;52.52;;
72686;Laerm;61365;52.162;4.500;2022-08-21T12:55:01;42.40;36.90;50.80;;
72686;Laerm;61365;52.162;4.500;2022-08-21T12:57:29;42.41;36.80;47.47;;
72686;Laerm;61365;52.162;4.500;2022-08-21T13:00:00;42.45;37.16;55.97;;
72686;Laerm;61365;52.162;4.500;2022-08-21T13:02:36;42.40;36.44;49.87;;
72686;Laerm;61365;52.162;4.500;2022-08-21T13:05:11;42.43;36.17;47.74;;
72686;Laerm;61365;52.162;4.500;2022-08-21T13:07:46;42.19;36.57;51.45;;
72686;Laerm;61365;52.162;4.500;2022-08-21T13:10:23;42.24;36.72;49.30;;
72686;Laerm;61365;52.162;4.500;2022-08-21T13:12:54;42.15;36.53;47.33;;
72686;Laerm;61365;52.162;4.500;2022-08-21T13:15:29;42.25;36.66;50.81;;
72686;Laerm;61365;52.162;4.500;2022-08-21T13:17:56;42.13;36.73;50.36;;
72686;Laerm;61365;52.162;4.500;2022-08-21T13:20:38;42.46;37.17;52.72;;
72686;Laerm;61365;52.162;4.500;2022-08-21T13:23:29;42.43;36.97;47.92;;
72686;Laerm;61365;52.162;4.500;2022-08-21T13:25:56;42.48;36.48;47.89;;
72686;Laerm;61365;52.162;4.500;2022-08-21T13:28:32;42.55;36.61;50.88;;
72686;Laerm;61365;52.162;4.500;2022-08-21T13:30:59;42.40;36.70;48.18;;
72686;Laerm;61365;52.162;4.500;2022-08-21T13:33:30;42.35;36.51;47.63;;
72686;Laerm;61365;52.162;4.500;2022-08-21T13:36:04;42.51;37.32;49.55;;
72686;Laerm;61365;52.162;4.500;2022-08-21T13:38:34;43.15;36.65;56.22;;
72686;Laerm;61365;52.162;4.500;2022-08-21T13:43:55;42.61;37.04;51.03;;
72686;Laerm;61365;52.162;4.500;2022-08-21T13:46:28;42.52;37.30;48.64;;
72686;Laerm;61365;52.162;4.500;2022-08-21T13:48:56;42.62;37.20;53.65;;
72686;Laerm;61365;52.162;4.500;2022-08-21T13:51:24;42.62;37.34;49.53;;
72686;Laerm;61365;52.162;4.500;2022-08-21T13:53:52;42.26;36.74;52.30;;
72686;Laerm;61365;52.162;4.500;2022-08-21T13:56:44;42.97;33.33;52.87;;
72686;Laerm;61365;52.162;4.500;2022-08-21T13:59:12;41.81;36.13;50.62;;
72686;Laerm;61365;52.162;4.500;2022-08-21T14:02:07;42.51;35.97;52.94;;
72686;Laerm;61365;52.162;4.500;2022-08-21T14:04:39;42.05;36.26;53.54;;
72686;Laerm;61365;52.162;4.500;2022-08-21T14:07:29;41.74;36.89;50.27;;
72686;Laerm;61365;52.162;4.500;2022-08-21T14:10:03;41.76;36.82;50.01;;
72686;Laerm;61365;52.162;4.500;2022-08-21T14:12:50;41.85;36.25;50.74;;
72686;Laerm;61365;52.162;4.500;2022-08-21T14:15:24;41.80;36.71;49.89;;
72686;Laerm;61365;52.162;4.500;2022-08-21T14:17:52;41.91;35.32;50.48;;
72686;Laerm;61365;52.162;4.500;2022-08-21T14:20:32;41.88;36.83;49.91;;
72686;Laerm;61365;52.162;4.500;2022-08-21T14:23:00;42.02;36.24;50.42;;
72686;Laerm;61365;52.162;4.500;2022-08-21T14:25:37;41.99;36.90;49.44;;
72686;Laerm;61365;52.162;4.500;2022-08-21T14:28:13;42.11;37.03;48.80;;
72686;Laerm;61365;52.162;4.500;2022-08-21T14:30:43;43.26;37.37;53.85;;
72686;Laerm;61365;52.162;4.500;2022-08-21T14:33:13;42.15;36.82;50.60;;
72686;Laerm;61365;52.162;4.500;2022-08-21T14:35:44;42.18;37.14;50.28;;
72686;Laerm;61365;52.162;4.500;2022-08-21T14:38:23;42.21;36.81;50.52;;
72686;Laerm;61365;52.162;4.500;2022-08-21T14:40:57;42.20;36.90;50.40;;
72686;Laerm;61365;52.162;4.500;2022-08-21T14:43:27;42.17;36.83;50.97;;
72686;Laerm;61365;52.162;4.500;2022-08-21T14:45:55;42.14;36.88;50.72;;
72686;Laerm;61365;52.162;4.500;2022-08-21T14:48:22;42.08;37.20;50.42;;
72686;Laerm;61365;52.162;4.500;2022-08-21T14:50:48;42.03;37.00;50.37;;
72686;Laerm;61365;52.162;4.500;2022-08-21T14:53:15;41.82;37.03;50.15;;
72686;Laerm;61365;52.162;4.500;2022-08-21T14:55:42;41.79;36.71;49.98;;
72686;Laerm;61365;52.162;4.500;2022-08-21T14:58:27;45.72;36.72;57.31;;
72686;Laerm;61365;52.162;4.500;2022-08-21T15:00:54;41.64;36.81;50.91;;
72686;Laerm;61365;52.162;4.500;2022-08-21T15:03:22;41.64;36.66;50.62;;
72686;Laerm;61365;52.162;4.500;2022-08-21T15:05:48;41.63;36.67;50.02;;
72686;Laerm;61365;52.162;4.500;2022-08-21T15:08:16;43.36;36.50;53.08;;
72686;Laerm;61365;52.162;4.500;2022-08-21T15:10:44;41.73;36.81;49.80;;